createdAt,value
2023-10-10T00:00:28.276Z,92.10
2023-10-10T00:02:57.117Z,92.10
2023-10-10T00:05:34.370Z,92.10
2023-10-10T00:08:06.320Z,92.20
2023-10-10T00:10:36.963Z,92.40
2023-10-10T00:13:08.476Z,92.50
2023-10-10T00:15:40.034Z,92.30
2023-10-10T00:18:12.320Z,92.30
2023-10-10T00:20:44.878Z,92.30
2023-10-10T00:23:13.750Z,92.30
2023-10-10T00:25:43.396Z,92.10
2023-10-10T00:28:19.171Z,92.20
2023-10-10T00:30:47.285Z,92.30
2023-10-10T00:33:17.119Z,92.10
2023-10-10T00:35:45.709Z,92.00
2023-10-10T00:38:19.117Z,91.90
2023-10-10T00:40:49.424Z,92.00
2023-10-10T00:43:17.804Z,92.10
2023-10-10T00:45:52.951Z,92.60
2023-10-10T00:48:23.184Z,92.70
2023-10-10T00:50:57.129Z,92.80
2023-10-10T00:53:26.358Z,93.10
2023-10-10T00:55:57.767Z,92.80
2023-10-10T00:58:36.805Z,93.20
2023-10-10T01:01:09.612Z,93.40
2023-10-10T01:03:40.774Z,93.50
2023-10-10T01:06:21.492Z,93.40
2023-10-10T01:08:51.877Z,93.60
2023-10-10T01:11:21.330Z,93.60
2023-10-10T01:13:49.101Z,93.50
2023-10-10T01:16:18.697Z,93.70
2023-10-10T01:18:53.091Z,94.10
2023-10-10T01:21:31.336Z,94.10
2023-10-10T01:24:07.421Z,94.00
2023-10-10T01:26:39.685Z,93.90
2023-10-10T01:29:21.256Z,94.20
2023-10-10T01:31:49.732Z,94.10
2023-10-10T01:34:31.769Z,94.10
2023-10-10T01:37:04.923Z,94.00
2023-10-10T01:39:52.586Z,94.00
2023-10-10T01:42:31.935Z,94.10
2023-10-10T01:45:03.653Z,94.00
2023-10-10T01:47:35.842Z,93.80
2023-10-10T01:50:08.934Z,93.80
2023-10-10T01:52:44.858Z,94.00
2023-10-10T01:55:12.765Z,94.10
2023-10-10T01:57:40.670Z,94.40
2023-10-10T02:00:21.336Z,94.00
2023-10-10T02:02:51.003Z,93.80
2023-10-10T02:05:31.562Z,93.80
2023-10-10T02:08:02.172Z,93.80
2023-10-10T02:10:31.161Z,93.90
2023-10-10T02:13:01.172Z,94.00
2023-10-10T02:15:33.692Z,93.90
2023-10-10T02:18:06.129Z,93.70
2023-10-10T02:20:50.883Z,93.70
2023-10-10T02:23:33.995Z,93.90
2023-10-10T02:26:10.253Z,93.90
2023-10-10T02:28:48.735Z,93.90
2023-10-10T02:31:17.799Z,94.00
2023-10-10T02:33:50.920Z,94.00
2023-10-10T02:36:31.460Z,93.70
2023-10-10T02:39:24.217Z,93.70
2023-10-10T02:41:59.393Z,93.50
2023-10-10T02:44:39.777Z,93.40
2023-10-10T02:47:08.833Z,93.30
2023-10-10T02:49:38.593Z,93.40
2023-10-10T02:52:08.765Z,93.50
2023-10-10T02:54:44.554Z,93.60
2023-10-10T02:57:26.330Z,93.30
2023-10-10T03:00:00.463Z,93.20
2023-10-10T03:02:41.778Z,93.70
2023-10-10T03:05:16.761Z,93.50
2023-10-10T03:07:52.829Z,93.70
2023-10-10T03:10:38.670Z,92.50
2023-10-10T03:13:28.796Z,92.70
2023-10-10T03:16:13.478Z,92.00
2023-10-10T03:18:54.062Z,91.50
2023-10-10T03:21:26.042Z,91.40
2023-10-10T03:23:56.960Z,92.30
2023-10-10T03:26:52.618Z,92.50
2023-10-10T03:29:28.345Z,92.90
2023-10-10T03:32:10.742Z,92.80
2023-10-10T03:34:45.832Z,92.40
2023-10-10T03:37:27.944Z,92.70
2023-10-10T03:39:58.706Z,92.70
2023-10-10T03:42:41.856Z,93.00
2023-10-10T03:45:24.595Z,92.90
2023-10-10T03:48:06.330Z,92.60
2023-10-10T03:50:48.154Z,92.70
2023-10-10T03:53:29.908Z,92.80
2023-10-10T03:56:11.632Z,93.00
2023-10-10T03:58:54.685Z,92.90
2023-10-10T04:01:36.529Z,92.90
2023-10-10T04:04:18.474Z,92.30
2023-10-10T04:07:00.237Z,92.50
2023-10-10T04:09:41.978Z,92.60
2023-10-10T04:12:23.704Z,92.70
2023-10-10T04:15:06.810Z,92.90
2023-10-10T04:17:48.721Z,92.00
2023-10-10T04:20:30.546Z,91.90
2023-10-10T04:23:12.374Z,91.00
2023-10-10T04:25:54.168Z,90.20
2023-10-10T04:28:35.930Z,89.90
2023-10-10T04:31:21.930Z,90.60
2023-10-10T04:34:03.857Z,91.50
2023-10-10T04:36:45.580Z,90.60
2023-10-10T04:39:27.315Z,91.10
2023-10-10T04:42:09.123Z,91.00
2023-10-10T04:44:50.888Z,90.90
2023-10-10T04:47:34.134Z,91.20
2023-10-10T04:50:15.922Z,91.50
2023-10-10T04:52:57.629Z,90.40
2023-10-10T04:55:39.324Z,90.90
2023-10-10T04:58:21.036Z,91.10
2023-10-10T05:01:02.804Z,92.00
2023-10-10T05:03:45.934Z,92.50
2023-10-10T05:06:27.748Z,92.60
2023-10-10T05:09:09.847Z,92.10
2023-10-10T05:11:52.029Z,92.10
2023-10-10T05:14:33.979Z,92.30
2023-10-10T05:17:16.053Z,92.10
2023-10-10T05:19:59.129Z,92.00
2023-10-10T05:22:41.195Z,92.50
2023-10-10T05:25:14.078Z,92.60
2023-10-10T05:27:42.779Z,92.60
2023-10-10T05:30:24.078Z,92.40
2023-10-10T05:33:02.106Z,92.50
2023-10-10T05:35:34.045Z,91.70
2023-10-10T05:38:02.901Z,91.50
2023-10-10T05:40:34.314Z,91.70
2023-10-10T05:43:02.284Z,91.20
2023-10-10T05:45:30.218Z,91.40
2023-10-10T05:47:58.176Z,91.10
2023-10-10T05:50:26.133Z,91.50
2023-10-10T05:52:55.725Z,91.70
2023-10-10T05:55:24.559Z,90.50
2023-10-10T05:57:53.540Z,90.60
2023-10-10T06:00:25.927Z,90.50
2023-10-10T06:02:53.927Z,90.30
2023-10-10T06:05:21.981Z,89.60
2023-10-10T06:07:50.659Z,89.20
2023-10-10T06:10:19.836Z,89.00
2023-10-10T06:12:49.066Z,88.60
2023-10-10T06:15:18.973Z,89.40
2023-10-10T06:17:47.008Z,88.00
2023-10-10T06:20:17.336Z,88.80
2023-10-10T06:22:46.049Z,89.60
2023-10-10T06:25:18.453Z,89.70
2023-10-10T06:27:55.068Z,88.90
2023-10-10T06:30:25.514Z,88.50
2023-10-10T06:32:59.699Z,86.30
2023-10-10T06:35:29.368Z,86.20
2023-10-10T06:37:59.295Z,85.70
2023-10-10T06:40:26.544Z,86.80
2023-10-10T06:42:57.442Z,86.70
2023-10-10T06:45:27.656Z,86.70
2023-10-10T06:47:55.850Z,84.10
2023-10-10T06:50:23.732Z,84.70
2023-10-10T06:52:53.442Z,83.50
2023-10-10T06:55:24.546Z,83.90
2023-10-10T06:57:59.005Z,85.30
2023-10-10T07:00:33.427Z,85.30
2023-10-10T07:03:01.561Z,83.50
2023-10-10T07:05:34.397Z,84.60
2023-10-10T07:08:13.784Z,84.00
2023-10-10T07:10:43.867Z,83.20
2023-10-10T07:13:14.742Z,82.00
2023-10-10T07:15:52.007Z,80.10
2023-10-10T07:18:24.331Z,76.10
2023-10-10T07:21:05.375Z,79.30
2023-10-10T07:23:54.257Z,77.10
2023-10-10T07:26:22.441Z,70.90
2023-10-10T07:28:54.124Z,66.90
2023-10-10T07:31:25.898Z,66.50
2023-10-10T07:34:04.486Z,65.90
2023-10-10T07:36:32.929Z,65.00
2023-10-10T07:39:14.675Z,65.10
2023-10-10T07:41:46.246Z,63.90
2023-10-10T07:44:17.698Z,62.90
2023-10-10T07:47:10.392Z,59.40
2023-10-10T07:49:41.023Z,57.20
2023-10-10T07:52:17.402Z,55.50
2023-10-10T07:54:47.756Z,58.20
2023-10-10T07:57:19.321Z,56.20
2023-10-10T07:59:47.606Z,52.00
2023-10-10T08:02:27.089Z,51.50
2023-10-10T08:04:55.716Z,51.70
2023-10-10T08:07:24.778Z,49.50
2023-10-10T08:10:12.984Z,50.30
2023-10-10T08:12:41.295Z,50.20
2023-10-10T08:15:20.304Z,49.50
2023-10-10T08:17:55.102Z,52.10
2023-10-10T08:20:37.672Z,50.30
2023-10-10T08:23:06.465Z,51.20
2023-10-10T08:25:34.425Z,51.90
2023-10-10T08:28:02.650Z,51.30
2023-10-10T08:30:30.462Z,48.50
2023-10-10T08:33:00.400Z,48.60
2023-10-10T08:35:31.387Z,47.80
2023-10-10T08:37:59.676Z,48.20
2023-10-10T08:40:35.743Z,46.70
2023-10-10T08:43:05.509Z,45.80
2023-10-10T08:45:40.653Z,44.70
2023-10-10T08:48:13.735Z,43.90
2023-10-10T08:50:42.703Z,43.70
2023-10-10T08:53:13.524Z,45.70
2023-10-10T08:55:42.586Z,45.90
2023-10-10T08:58:11.513Z,45.70
2023-10-10T09:00:39.507Z,44.80
2023-10-10T09:03:09.136Z,43.80
2023-10-10T09:05:39.057Z,45.20
2023-10-10T09:08:15.353Z,46.00
2023-10-10T09:10:45.239Z,45.20
2023-10-10T09:13:12.984Z,46.80
2023-10-10T09:15:55.128Z,49.00
2023-10-10T09:18:24.357Z,47.80
2023-10-10T09:20:54.881Z,47.80
2023-10-10T09:23:24.739Z,47.20
2023-10-10T09:26:10.616Z,47.30
2023-10-10T09:28:46.096Z,48.10
2023-10-10T09:31:21.334Z,45.80
2023-10-10T09:33:55.275Z,46.70
2023-10-10T09:36:27.918Z,46.00
2023-10-10T09:39:09.596Z,45.50
2023-10-10T09:41:58.612Z,44.70
2023-10-10T09:44:50.032Z,44.80
2023-10-10T09:47:37.748Z,45.80
2023-10-10T09:50:22.411Z,46.00
2023-10-10T09:52:54.838Z,46.90
2023-10-10T09:55:40.258Z,47.90
2023-10-10T09:58:25.172Z,47.90
2023-10-10T10:00:53.588Z,47.50
2023-10-10T10:03:33.109Z,48.00
2023-10-10T10:06:27.153Z,48.60
2023-10-10T10:09:17.383Z,47.00
2023-10-10T10:11:57.506Z,48.90
2023-10-10T10:14:36.620Z,48.30
2023-10-10T10:17:14.926Z,44.90
2023-10-10T10:19:48.595Z,45.90
2023-10-10T10:22:18.459Z,45.80
2023-10-10T10:25:22.972Z,45.70
2023-10-10T10:27:51.420Z,46.40
2023-10-10T10:30:33.546Z,42.40
2023-10-10T10:33:01.557Z,43.70
2023-10-10T10:36:18.662Z,43.90
2023-10-10T10:39:00.729Z,44.20
2023-10-10T10:41:44.088Z,44.90
2023-10-10T10:44:14.512Z,42.80
2023-10-10T10:46:49.106Z,43.00
2023-10-10T10:49:23.096Z,43.40
2023-10-10T10:52:08.584Z,44.30
2023-10-10T10:54:37.549Z,46.60
2023-10-10T10:57:07.322Z,45.70
2023-10-10T10:59:40.442Z,46.20
2023-10-10T11:02:16.625Z,44.30
2023-10-10T11:04:51.284Z,44.00
2023-10-10T11:07:33.625Z,43.80
2023-10-10T11:10:09.961Z,45.60
2023-10-10T11:12:39.235Z,45.80
2023-10-10T11:15:11.409Z,45.70
2023-10-10T11:17:41.381Z,46.10
2023-10-10T11:20:25.303Z,49.00
2023-10-10T11:22:55.834Z,46.30
2023-10-10T11:25:40.081Z,46.30
2023-10-10T11:28:22.899Z,47.00
2023-10-10T11:30:52.770Z,47.60
2023-10-10T11:33:50.161Z,46.90
2023-10-10T11:36:30.242Z,46.20
2023-10-10T11:39:17.190Z,47.70
2023-10-10T11:41:47.550Z,49.40
2023-10-10T11:44:21.770Z,50.00
2023-10-10T11:46:50.862Z,52.40
2023-10-10T11:49:18.987Z,52.20
2023-10-10T11:51:47.949Z,53.10
2023-10-10T11:54:26.140Z,53.80
2023-10-10T11:56:54.159Z,55.50
2023-10-10T11:59:24.725Z,57.00
2023-10-10T12:01:55.704Z,57.90
2023-10-10T12:04:32.258Z,57.40
2023-10-10T12:07:04.473Z,57.80
2023-10-10T12:09:34.724Z,60.00
2023-10-10T12:12:04.784Z,57.70
2023-10-10T12:14:34.261Z,57.20
2023-10-10T12:17:06.639Z,58.20
2023-10-10T12:19:38.335Z,56.10
2023-10-10T12:22:11.582Z,55.90
2023-10-10T12:24:40.488Z,58.00
2023-10-10T12:27:09.124Z,56.50
2023-10-10T12:29:41.474Z,57.40
2023-10-10T12:32:17.423Z,58.10
2023-10-10T12:34:46.683Z,58.60
2023-10-10T12:37:16.542Z,57.90
2023-10-10T12:39:45.002Z,58.60
2023-10-10T12:42:13.518Z,59.00
2023-10-10T12:44:48.747Z,56.10
2023-10-10T12:47:18.561Z,56.60
2023-10-10T12:49:46.551Z,56.30
2023-10-10T12:52:18.012Z,58.30
2023-10-10T12:54:47.670Z,56.50
2023-10-10T12:57:15.952Z,58.00
2023-10-10T12:59:47.311Z,54.60
2023-10-10T13:02:17.630Z,56.10
2023-10-10T13:04:48.536Z,56.30
2023-10-10T13:07:17.810Z,53.60
2023-10-10T13:09:47.516Z,54.20
2023-10-10T13:12:28.870Z,56.90
2023-10-10T13:15:17.529Z,55.40
2023-10-10T13:17:54.310Z,53.50
2023-10-10T13:20:23.412Z,54.90
2023-10-10T13:22:52.365Z,53.20
2023-10-10T13:25:21.271Z,51.80
2023-10-10T13:27:53.126Z,54.30
2023-10-10T13:30:22.289Z,53.00
2023-10-10T13:32:50.574Z,50.50
2023-10-10T13:35:20.892Z,50.70
2023-10-10T13:37:48.654Z,50.10
2023-10-10T13:40:23.105Z,49.20
2023-10-10T13:42:50.964Z,51.70
2023-10-10T13:45:20.576Z,49.30
2023-10-10T13:47:50.172Z,50.10
2023-10-10T13:50:32.048Z,50.90
2023-10-10T13:53:00.783Z,51.90
2023-10-10T13:55:31.191Z,52.40
2023-10-10T13:57:58.911Z,52.30
2023-10-10T14:00:34.723Z,52.20
2023-10-10T14:03:05.713Z,51.70
2023-10-10T14:05:35.757Z,53.90
2023-10-10T14:08:05.001Z,53.80
2023-10-10T14:10:40.838Z,54.50
2023-10-10T14:13:23.292Z,54.90
2023-10-10T14:15:59.897Z,55.40
2023-10-10T14:18:31.228Z,55.30
2023-10-10T14:21:08.731Z,57.10
2023-10-10T14:23:37.052Z,56.20
2023-10-10T14:26:13.682Z,56.50
2023-10-10T14:28:42.282Z,57.00
2023-10-10T14:31:13.479Z,57.50
2023-10-10T14:33:42.936Z,57.30
2023-10-10T14:36:18.177Z,55.90
2023-10-10T14:38:46.775Z,55.90
2023-10-10T14:41:17.995Z,56.60
2023-10-10T14:43:48.715Z,56.30
2023-10-10T14:46:22.338Z,57.70
2023-10-10T14:49:01.694Z,56.30
2023-10-10T14:51:34.607Z,56.40
2023-10-10T14:54:07.825Z,57.10
2023-10-10T14:56:36.962Z,56.10
2023-10-10T14:59:06.962Z,56.50
2023-10-10T15:01:36.988Z,55.20
2023-10-10T15:04:09.894Z,56.50
2023-10-10T15:06:40.754Z,56.50
2023-10-10T15:09:13.973Z,55.40
2023-10-10T15:11:46.820Z,55.10
2023-10-10T15:14:15.256Z,55.80
2023-10-10T15:16:47.309Z,56.50
2023-10-10T15:19:16.790Z,58.00
2023-10-10T15:21:49.240Z,57.90
2023-10-10T15:24:17.043Z,60.20
2023-10-10T15:26:46.848Z,61.40
2023-10-10T15:29:15.502Z,65.10
2023-10-10T15:31:43.594Z,67.30
2023-10-10T15:34:12.818Z,68.00
2023-10-10T15:36:44.918Z,69.60
2023-10-10T15:39:13.610Z,72.20
2023-10-10T15:41:43.631Z,72.60
2023-10-10T15:44:13.240Z,73.90
2023-10-10T15:46:43.828Z,74.20
2023-10-10T15:51:45.786Z,75.10
2023-10-10T15:54:15.597Z,76.30
2023-10-10T15:56:44.358Z,77.20
2023-10-10T15:59:16.130Z,77.30
2023-10-10T16:01:47.885Z,77.50
2023-10-10T16:04:17.882Z,78.20
2023-10-10T16:06:48.229Z,77.70
2023-10-10T16:09:21.153Z,78.50
2023-10-10T16:11:53.640Z,78.70
2023-10-10T16:14:22.617Z,79.20
2023-10-10T16:16:50.860Z,79.30
2023-10-10T16:19:22.018Z,79.50
2023-10-10T16:21:52.272Z,79.70
2023-10-10T16:24:20.180Z,79.70
2023-10-10T16:26:49.979Z,80.10
2023-10-10T16:29:20.585Z,79.40
2023-10-10T16:31:49.634Z,80.00
2023-10-10T16:34:18.062Z,80.40
2023-10-10T16:36:47.283Z,81.10
2023-10-10T16:39:16.631Z,81.20
2023-10-10T16:41:44.751Z,81.50
2023-10-10T16:44:15.411Z,81.40
2023-10-10T16:46:43.420Z,81.70
2023-10-10T16:49:11.325Z,81.90
2023-10-10T16:51:39.084Z,82.30
2023-10-10T16:54:07.543Z,82.30
2023-10-10T16:56:36.910Z,82.40
2023-10-10T16:59:05.616Z,82.50
2023-10-10T17:01:33.779Z,82.30
2023-10-10T17:04:02.103Z,82.30
2023-10-10T17:06:32.496Z,82.50
2023-10-10T17:09:00.609Z,82.90
2023-10-10T17:11:28.735Z,83.40
2023-10-10T17:14:00.436Z,83.50
2023-10-10T17:16:30.238Z,83.70
2023-10-10T17:19:22.642Z,83.90
2023-10-10T17:21:48.223Z,84.20
2023-10-10T17:24:19.671Z,84.20
2023-10-10T17:26:47.573Z,84.10
2023-10-10T17:29:17.116Z,84.10
2023-10-10T17:31:45.233Z,84.00
2023-10-10T17:34:16.547Z,84.10
2023-10-10T17:36:45.204Z,84.20
2023-10-10T17:39:16.602Z,84.10
2023-10-10T17:41:48.189Z,84.40
2023-10-10T17:44:18.874Z,84.60
2023-10-10T17:46:48.487Z,84.20
2023-10-10T17:49:16.769Z,84.00
2023-10-10T17:51:45.616Z,83.90
2023-10-10T17:54:16.544Z,84.00
2023-10-10T17:56:45.578Z,84.00
2023-10-10T17:59:13.543Z,84.00
2023-10-10T18:01:44.644Z,84.00
2023-10-10T18:04:14.450Z,84.20
2023-10-10T18:06:42.401Z,84.30
2023-10-10T18:09:10.322Z,84.20
2023-10-10T18:11:38.752Z,84.00
2023-10-10T18:14:08.060Z,83.80
2023-10-10T18:16:36.799Z,83.80
2023-10-10T18:19:07.166Z,83.90
2023-10-10T18:21:35.054Z,84.00
2023-10-10T18:24:08.071Z,83.00
2023-10-10T18:26:38.617Z,83.20
2023-10-10T18:29:06.718Z,83.30
2023-10-10T18:31:35.659Z,83.20
2023-10-10T18:34:06.045Z,82.90
2023-10-10T18:36:37.478Z,82.30
2023-10-10T18:39:12.746Z,82.50
2023-10-10T18:41:42.346Z,83.00
2023-10-10T18:44:11.110Z,83.10
2023-10-10T18:46:39.005Z,83.50
2023-10-10T18:49:10.515Z,83.70
2023-10-10T18:51:39.415Z,83.10
2023-10-10T18:54:09.440Z,83.30
2023-10-10T18:56:38.813Z,82.70
2023-10-10T18:59:06.757Z,82.30
2023-10-10T19:01:38.363Z,81.80
2023-10-10T19:04:09.396Z,82.80
2023-10-10T19:06:39.723Z,82.30
2023-10-10T19:09:12.183Z,82.70
2023-10-10T19:11:40.443Z,82.80
2023-10-10T19:14:10.457Z,83.40
2023-10-10T19:16:38.355Z,84.00
2023-10-10T19:19:06.328Z,84.10
2023-10-10T19:21:35.663Z,84.40
2023-10-10T19:24:03.670Z,84.30
2023-10-10T19:26:31.827Z,84.50
2023-10-10T19:28:59.811Z,84.40
2023-10-10T19:31:27.797Z,85.00
2023-10-10T19:33:55.886Z,85.40
2023-10-10T19:36:23.835Z,85.10
2023-10-10T19:38:54.508Z,85.50
2023-10-10T19:41:22.285Z,85.10
2023-10-10T19:43:52.236Z,85.70
2023-10-10T19:48:51.708Z,86.20
2023-10-10T19:51:20.964Z,86.00
2023-10-10T19:53:50.779Z,86.20
2023-10-10T19:56:22.101Z,86.40
2023-10-10T19:58:50.294Z,86.40
2023-10-10T20:01:18.241Z,86.20
2023-10-10T20:03:46.932Z,86.30
2023-10-10T20:06:16.431Z,86.30
2023-10-10T20:08:44.289Z,86.40
2023-10-10T20:11:13.177Z,86.30
2023-10-10T20:13:42.324Z,86.50
2023-10-10T20:16:15.546Z,86.70
2023-10-10T20:18:45.094Z,86.80
2023-10-10T20:21:14.025Z,86.70
2023-10-10T20:23:43.017Z,86.30
2023-10-10T20:26:15.900Z,85.90
2023-10-10T20:28:47.529Z,86.00
2023-10-10T20:31:17.653Z,86.30
2023-10-10T20:33:45.904Z,86.30
2023-10-10T20:36:14.461Z,86.30
2023-10-10T20:38:43.914Z,86.60
2023-10-10T20:41:12.927Z,86.50
2023-10-10T20:43:41.894Z,86.60
2023-10-10T20:46:12.825Z,86.40
2023-10-10T20:48:40.689Z,86.20
2023-10-10T20:51:13.440Z,86.50
2023-10-10T20:53:42.983Z,86.60
2023-10-10T20:56:10.868Z,86.60
2023-10-10T20:58:39.173Z,86.80
2023-10-10T21:01:10.554Z,86.60
2023-10-10T21:03:40.075Z,86.50
2023-10-10T21:06:08.107Z,86.70
2023-10-10T21:08:35.958Z,86.70
2023-10-10T21:11:09.694Z,86.50
2023-10-10T21:13:37.420Z,86.20
2023-10-10T21:16:15.049Z,85.30
2023-10-10T21:18:46.054Z,85.10
2023-10-10T21:21:14.045Z,84.80
2023-10-10T21:23:42.203Z,84.80
2023-10-10T21:26:14.691Z,84.70
2023-10-10T21:28:42.638Z,85.10
2023-10-10T21:31:10.872Z,84.90
2023-10-10T21:33:41.302Z,85.30
2023-10-10T21:36:12.384Z,85.30
2023-10-10T21:38:40.366Z,84.80
2023-10-10T21:41:10.335Z,85.20
2023-10-10T21:43:38.216Z,85.50
2023-10-10T21:46:06.586Z,85.40
2023-10-10T21:48:34.516Z,85.60
2023-10-10T21:51:05.382Z,85.80
2023-10-10T21:53:38.399Z,86.00
2023-10-10T21:56:07.403Z,85.10
2023-10-10T21:58:35.172Z,85.80
2023-10-10T22:01:04.170Z,85.20
2023-10-10T22:03:32.565Z,84.60
2023-10-10T22:06:01.192Z,85.30
2023-10-10T22:08:28.939Z,85.40
2023-10-10T22:11:03.251Z,85.40
2023-10-10T22:13:31.430Z,85.20
2023-10-10T22:15:59.224Z,84.70
2023-10-10T22:18:27.089Z,84.10
2023-10-10T22:20:57.017Z,83.30
2023-10-10T22:23:27.362Z,83.30
2023-10-10T22:26:01.013Z,83.10
2023-10-10T22:28:29.829Z,83.80
2023-10-10T22:31:00.065Z,83.20
2023-10-10T22:33:27.981Z,83.30
2023-10-10T22:35:55.816Z,83.90
2023-10-10T22:38:24.353Z,84.60
2023-10-10T22:40:52.073Z,85.00
2023-10-10T22:43:22.321Z,85.30
2023-10-10T22:45:50.264Z,85.40
2023-10-10T22:48:18.123Z,85.50
2023-10-10T22:50:46.730Z,85.60
2023-10-10T22:53:16.302Z,85.60
2023-10-10T22:55:45.506Z,85.80
2023-10-10T22:58:16.085Z,85.40
2023-10-10T23:00:48.534Z,84.50
2023-10-10T23:03:19.931Z,85.10
2023-10-10T23:05:48.315Z,84.70
2023-10-10T23:08:16.827Z,85.10
2023-10-10T23:10:47.254Z,84.70
2023-10-10T23:13:16.497Z,84.80
2023-10-10T23:15:50.105Z,84.10
2023-10-10T23:18:18.587Z,85.20
2023-10-10T23:20:47.066Z,85.40
2023-10-10T23:23:16.896Z,85.20
2023-10-10T23:25:44.684Z,85.00
2023-10-10T23:28:12.507Z,85.30
2023-10-10T23:30:43.023Z,85.20
2023-10-10T23:33:14.072Z,84.80
2023-10-10T23:35:42.884Z,85.10
2023-10-10T23:38:11.458Z,85.10
2023-10-10T23:40:41.948Z,84.60
2023-10-10T23:43:11.983Z,85.10
2023-10-10T23:45:43.070Z,84.80
2023-10-10T23:48:16.501Z,85.00
2023-10-10T23:50:45.591Z,85.50
2023-10-10T23:53:14.806Z,85.50
2023-10-10T23:55:47.481Z,85.40
2023-10-10T23:58:15.785Z,85.10
